Time;durP1;ratioP1;P1;durP2;ratioP2;P2;SDS_P1;SDS_P2;PMS_P1;PMS_P2;Temp;Humidity;BMP_temperature;BMP_pressure;BME280_temperature;BME280_humidity;BME280_pressure;Samples;Min_cycle;Max_cycle;Signal;HPM_P1;HPM_P2
2022/06/24 00:01:26;;;;;;;1.92;1.27;;;25.50;52.80;;;;;;4492424;31;20084;-70
2022/06/24 00:03:52;;;;;;;2.35;1.30;;;25.50;52.80;;;;;;4492037;31;20073;-70
2022/06/24 00:06:18;;;;;;;3.92;1.45;;;25.50;52.80;;;;;;4492767;31;20073;-70
2022/06/24 00:08:53;;;;;;;1.60;1.10;;;25.40;52.70;;;;;;4492394;31;20085;-70
2022/06/24 00:11:23;;;;;;;2.15;1.23;;;25.50;52.80;;;;;;4492535;31;20092;-70
2022/06/24 00:13:51;;;;;;;3.05;1.48;;;25.40;52.80;;;;;;4492527;31;20589;-70
2022/06/24 00:16:17;;;;;;;2.38;1.80;;;25.40;52.80;;;;;;4492396;31;20073;-70
2022/06/24 00:18:43;;;;;;;1.98;1.17;;;25.40;52.80;;;;;;4492615;31;20093;-70
2022/06/24 00:21:13;;;;;;;2.40;1.42;;;25.40;52.80;;;;;;4492261;31;20103;-70
2022/06/24 00:23:40;;;;;;;2.67;1.60;;;25.40;52.80;;;;;;4492448;31;20125;-70
2022/06/24 00:26:06;;;;;;;2.00;1.40;;;25.40;52.80;;;;;;4491995;31;20124;-70
2022/06/24 00:28:32;;;;;;;2.47;1.50;;;25.40;52.90;;;;;;4492450;31;20092;-70
2022/06/24 00:31:01;;;;;;;1.63;1.20;;;25.40;52.80;;;;;;4492209;31;20210;-70
2022/06/24 00:33:35;;;;;;;2.20;1.10;;;25.40;52.90;;;;;;4491886;31;20170;-70
2022/06/24 00:36:02;;;;;;;3.58;1.60;;;25.40;52.80;;;;;;4492214;31;20137;-70
2022/06/24 00:38:35;;;;;;;1.83;1.25;;;25.40;52.80;;;;;;4491787;31;20112;-70
2022/06/24 00:41:08;;;;;;;1.48;1.20;;;25.40;52.90;;;;;;4492140;31;20073;-70
2022/06/24 00:43:35;;;;;;;;;;;25.40;52.90;;;;;;4492996;31;20077;-70
2022/06/24 00:46:19;;;;;;;2.97;1.50;;;25.30;52.80;;;;;;4492004;31;20393;-70
2022/06/24 00:48:50;;;;;;;4.20;1.67;;;25.30;52.80;;;;;;4492348;31;20147;-70
2022/06/24 00:51:18;;;;;;;2.17;1.38;;;25.40;53.90;;;;;;4492160;31;20205;-70
2022/06/24 00:53:48;;;;;;;1.50;1.20;;;25.40;52.90;;;;;;4491850;31;20523;-71
2022/06/24 00:56:16;;;;;;;1.90;1.23;;;25.30;52.90;;;;;;4491887;31;20117;-70
2022/06/24 00:59:01;;;;;;;2.17;1.40;;;25.30;52.90;;;;;;4492263;32;20142;-70
2022/06/24 01:01:31;;;;;;;2.85;1.33;;;25.30;52.80;;;;;;4491752;32;20096;-70
2022/06/24 01:03:58;;;;;;;2.75;1.25;;;25.30;52.90;;;;;;4491831;32;20515;-70
2022/06/24 01:06:26;;;;;;;2.83;1.23;;;25.30;52.90;;;;;;4490898;32;20226;-70
2022/06/24 01:08:52;;;;;;;1.85;0.90;;;25.30;53.00;;;;;;4491720;32;20121;-70
2022/06/24 01:11:34;;;;;;;2.63;1.27;;;25.30;53.00;;;;;;4491831;32;20151;-70
2022/06/24 01:14:01;;;;;;;1.40;1.30;;;25.30;52.90;;;;;;4492795;31;20170;-70
2022/06/24 01:16:27;;;;;;;2.17;1.27;;;25.30;53.00;;;;;;4494870;31;20535;-72
2022/06/24 01:18:56;;;;;;;1.75;1.20;;;25.30;53.00;;;;;;4495064;31;20611;-72
2022/06/24 01:21:33;;;;;;;1.20;1.10;;;25.30;53.00;;;;;;4494769;31;20562;-70
2022/06/24 01:24:24;;;;;;;1.70;1.10;;;25.30;53.00;;;;;;4494770;31;20143;-70
2022/06/24 01:26:55;;;;;;;1.88;1.30;;;25.30;52.90;;;;;;4488952;31;20169;-70
2022/06/24 01:29:22;;;;;;;1.75;1.10;;;25.30;53.10;;;;;;4494626;31;20160;-70
2022/06/24 01:31:52;;;;;;;1.52;1.20;;;25.30;53.00;;;;;;4494797;31;20091;-70
2022/06/24 01:34:20;;;;;;;2.10;1.10;;;25.30;53.10;;;;;;4494613;31;20081;-70
2022/06/24 01:36:46;;;;;;;2.22;1.20;;;25.30;53.10;;;;;;4494591;31;20640;-70
2022/06/24 01:39:13;;;;;;;2.67;1.30;;;25.30;53.10;;;;;;4494776;31;20084;-70
2022/06/24 01:41:39;;;;;;;2.20;1.30;;;25.30;53.10;;;;;;4493121;31;20136;-71
2022/06/24 01:44:06;;;;;;;1.50;1.40;;;25.30;53.10;;;;;;4494219;31;20112;-71
2022/06/24 01:46:33;;;;;;;2.42;1.35;;;25.30;53.10;;;;;;4494599;31;20179;-70
2022/06/24 01:48:59;;;;;;;2.67;1.35;;;25.20;53.00;;;;;;4494137;31;20081;-71
2022/06/24 01:51:27;;;;;;;1.42;1.30;;;25.20;53.00;;;;;;4493522;31;20166;-69
2022/06/24 01:53:53;;;;;;;1.70;1.02;;;25.30;53.10;;;;;;4494488;31;20077;-70
2022/06/24 01:56:19;;;;;;;2.53;1.30;;;25.20;53.10;;;;;;4494230;31;20112;-70
2022/06/24 01:58:45;;;;;;;1.73;1.13;;;25.20;53.10;;;;;;4494457;31;20474;-70
2022/06/24 02:01:12;;;;;;;1.70;1.30;;;25.20;53.10;;;;;;4494391;31;20084;-70
2022/06/24 02:03:38;;;;;;;1.60;1.27;;;25.20;53.10;;;;;;4494108;31;20207;-70
2022/06/24 02:06:09;;;;;;;2.70;1.30;;;25.20;53.10;;;;;;4494130;31;20085;-70
2022/06/24 02:08:35;;;;;;;1.40;1.10;;;25.20;53.10;;;;;;4494112;31;20091;-70
2022/06/24 02:13:47;;;;;;;1.65;1.10;;;25.20;53.10;;;;;;4493963;31;20196;-70
2022/06/24 02:16:13;;;;;;;2.33;1.25;;;25.20;53.10;;;;;;4494377;31;20096;-70
2022/06/24 02:18:40;;;;;;;2.33;1.17;;;25.20;53.20;;;;;;4494032;31;20158;-70
2022/06/24 02:21:06;;;;;;;2.05;1.20;;;25.20;53.20;;;;;;4494094;31;20180;-72
2022/06/24 02:23:32;;;;;;;2.30;1.40;;;25.20;53.20;;;;;;4493878;31;20175;-70
2022/06/24 02:25:58;;;;;;;1.88;0.88;;;25.10;53.20;;;;;;4493168;31;20081;-72
2022/06/24 02:28:24;;;;;;;1.73;1.35;;;25.10;53.20;;;;;;4494027;31;20608;-71
2022/06/24 02:30:54;;;;;;;1.85;1.10;;;25.20;53.20;;;;;;4493709;31;20418;-70
2022/06/24 02:33:20;;;;;;;1.25;1.15;;;25.20;53.20;;;;;;4493511;31;20120;-70
2022/06/24 02:35:46;;;;;;;1.65;1.10;;;25.10;53.20;;;;;;4493721;31;20067;-70
2022/06/24 02:38:12;;;;;;;1.70;1.20;;;25.20;53.30;;;;;;4493195;31;20262;-70
2022/06/24 02:40:51;;;;;;;1.17;1.08;;;25.10;53.20;;;;;;4493830;31;20057;-70
2022/06/24 02:43:19;;;;;;;1.60;1.10;;;25.10;53.20;;;;;;4493389;31;20077;-70
2022/06/24 02:45:47;;;;;;;1.67;1.08;;;25.10;53.20;;;;;;4493505;31;20510;-70
2022/06/24 02:48:16;;;;;;;2.13;1.15;;;25.10;53.20;;;;;;4493224;31;20120;-70
2022/06/24 02:50:44;;;;;;;1.25;1.00;;;25.10;53.30;;;;;;4493323;31;20139;-70
2022/06/24 02:53:10;;;;;;;1.20;1.10;;;25.10;53.20;;;;;;4493602;31;20282;-70
2022/06/24 02:55:38;;;;;;;1.88;1.30;;;25.10;53.20;;;;;;4493322;31;20426;-70
2022/06/24 02:58:04;;;;;;;2.40;1.05;;;25.10;53.30;;;;;;4493533;31;20073;-70
2022/06/24 03:00:30;;;;;;;2.55;1.00;;;25.10;53.20;;;;;;4492218;31;20174;-70
2022/06/24 03:02:56;;;;;;;1.20;0.88;;;25.10;53.20;;;;;;4493103;31;20092;-70
2022/06/24 03:05:22;;;;;;;1.73;1.50;;;25.00;53.20;;;;;;4493420;31;20113;-70
2022/06/24 03:07:48;;;;;;;1.88;1.30;;;25.00;53.20;;;;;;4493151;31;20080;-70
2022/06/24 03:10:15;;;;;;;1.58;1.02;;;25.10;53.20;;;;;;4493282;31;20085;-70
2022/06/24 03:12:41;;;;;;;1.20;1.02;;;25.00;53.30;;;;;;4493046;31;20529;-70
2022/06/24 03:15:09;;;;;;;1.20;1.08;;;25.00;53.20;;;;;;4493235;31;20115;-71
2022/06/24 03:17:36;;;;;;;1.20;1.10;;;25.00;53.30;;;;;;4492178;31;20540;-71
2022/06/24 03:20:03;;;;;;;1.33;1.08;;;25.10;53.30;;;;;;4493133;31;20129;-70
2022/06/24 03:22:28;;;;;;;1.25;1.00;;;25.00;53.30;;;;;;4493096;31;20084;-69
2022/06/24 03:24:54;;;;;;;1.15;1.00;;;25.00;54.20;;;;;;4493348;31;20061;-70
2022/06/24 03:27:20;;;;;;;1.88;1.00;;;25.00;53.20;;;;;;4493016;31;20418;-70
2022/06/24 03:29:47;;;;;;;2.80;1.30;;;25.00;53.30;;;;;;4491921;31;20189;-70
2022/06/24 03:32:13;;;;;;;1.52;1.20;;;25.00;53.30;;;;;;4492660;31;20143;-70
2022/06/24 03:34:39;;;;;;;1.20;1.00;;;25.00;53.30;;;;;;4492882;31;20124;-70
2022/06/24 03:37:05;;;;;;;1.27;1.10;;;25.00;54.20;;;;;;4491609;31;20214;-70
2022/06/24 03:39:31;;;;;;;1.85;1.08;;;25.00;53.30;;;;;;4491719;31;20073;-70
2022/06/24 03:41:57;;;;;;;1.60;1.02;;;25.00;53.30;;;;;;4492959;31;20084;-70
2022/06/24 03:44:23;;;;;;;1.10;1.00;;;25.00;53.30;;;;;;4492748;31;20231;-70
2022/06/24 03:46:48;;;;;;;1.45;1.08;;;25.00;53.30;;;;;;4491415;31;20084;-75
2022/06/24 03:49:15;;;;;;;1.52;1.10;;;25.00;53.30;;;;;;4493001;31;20080;-70
2022/06/24 03:51:41;;;;;;;1.27;1.00;;;25.00;53.30;;;;;;4492447;31;20230;-70
2022/06/24 03:54:07;;;;;;;1.73;1.00;;;25.00;53.30;;;;;;4492636;31;20073;-70
2022/06/24 03:56:33;;;;;;;1.27;0.90;;;25.00;53.30;;;;;;4492628;31;20096;-70
2022/06/24 03:58:59;;;;;;;1.55;1.20;;;25.00;53.30;;;;;;4492569;31;20081;-70
2022/06/24 04:01:25;;;;;;;1.40;1.00;;;25.00;53.30;;;;;;4492293;31;20085;-70
2022/06/24 04:03:51;;;;;;;2.53;1.13;;;25.00;53.30;;;;;;4492346;31;20080;-70
2022/06/24 04:06:17;;;;;;;3.90;1.25;;;25.00;53.40;;;;;;4492747;31;20084;-70
2022/06/24 04:08:43;;;;;;;2.30;1.23;;;25.00;53.40;;;;;;4492365;31;20085;-70
2022/06/24 04:11:14;;;;;;;1.20;1.10;;;25.00;53.40;;;;;;4492940;31;20069;-70
2022/06/24 04:13:40;;;;;;;1.52;1.10;;;25.00;53.30;;;;;;4492125;31;20107;-70
2022/06/24 04:16:06;;;;;;;1.70;1.15;;;25.00;53.40;;;;;;4492615;31;20069;-71
2022/06/24 04:18:33;;;;;;;1.63;1.02;;;24.90;53.30;;;;;;4492576;31;20516;-70
2022/06/24 04:20:59;;;;;;;1.17;1.00;;;24.90;53.30;;;;;;4491425;31;20124;-70
2022/06/24 04:23:25;;;;;;;1.50;1.10;;;25.00;53.50;;;;;;4492278;31;20518;-70
2022/06/24 04:25:51;;;;;;;1.25;0.90;;;24.90;53.40;;;;;;4492286;31;20081;-70
2022/06/24 04:28:17;;;;;;;1.27;1.17;;;24.90;53.40;;;;;;4492242;31;20510;-70
2022/06/24 04:30:43;;;;;;;1.30;1.20;;;25.00;53.40;;;;;;4492499;31;20080;-70
2022/06/24 04:33:09;;;;;;;1.30;1.20;;;24.90;53.40;;;;;;4492365;31;20131;-70
2022/06/24 04:35:35;;;;;;;1.13;1.00;;;24.90;53.40;;;;;;4492192;31;20418;-70
2022/06/24 04:38:02;;;;;;;1.02;0.90;;;24.90;53.40;;;;;;4491764;31;20065;-70
2022/06/24 04:40:28;;;;;;;2.80;1.25;;;24.90;53.40;;;;;;4492025;31;20100;-70
2022/06/24 04:42:54;;;;;;;1.42;1.00;;;24.90;53.40;;;;;;4491997;31;20522;-70
2022/06/24 04:45:20;;;;;;;1.60;1.30;;;24.90;53.40;;;;;;4492329;31;20065;-70
2022/06/24 04:47:47;;;;;;;1.20;1.00;;;24.90;53.40;;;;;;4491062;31;20226;-70
2022/06/24 04:50:13;;;;;;;1.60;1.10;;;24.90;53.40;;;;;;4492127;31;20064;-70
2022/06/24 04:52:40;;;;;;;1.60;1.10;;;24.90;53.40;;;;;;4491698;31;20509;-70
2022/06/24 04:55:07;;;;;;;1.17;1.05;;;24.90;53.40;;;;;;4492020;31;20081;-70
2022/06/24 04:57:33;;;;;;;1.52;1.25;;;24.90;53.40;;;;;;4490606;31;20061;-70
2022/06/24 04:59:59;;;;;;;1.40;0.90;;;24.90;53.40;;;;;;4491588;32;20089;-70
2022/06/24 05:02:25;;;;;;;1.10;1.00;;;24.90;53.40;;;;;;4492008;32;20080;-70
2022/06/24 05:04:51;;;;;;;0.93;0.82;;;24.90;53.40;;;;;;4491919;32;20602;-70
2022/06/24 05:07:17;;;;;;;1.38;1.25;;;24.90;53.40;;;;;;4491956;32;20069;-70
2022/06/24 05:09:43;;;;;;;1.25;1.13;;;24.90;53.40;;;;;;4490700;32;20061;-70
2022/06/24 05:12:09;;;;;;;1.73;0.90;;;24.90;53.40;;;;;;4491848;32;20625;-70
2022/06/24 05:14:36;;;;;;;2.28;1.10;;;24.90;53.40;;;;;;4491899;32;20514;-70
2022/06/24 05:17:02;;;;;;;1.10;1.00;;;24.90;54.30;;;;;;4492064;32;20128;-70
2022/06/24 05:19:28;;;;;;;1.00;0.90;;;24.90;53.40;;;;;;4491520;32;20069;-70
2022/06/24 05:21:54;;;;;;;1.15;1.05;;;24.90;53.40;;;;;;4491420;32;20211;-70
2022/06/24 05:24:20;;;;;;;1.83;1.00;;;24.90;53.40;;;;;;4491791;32;20510;-70
2022/06/24 05:26:47;;;;;;;1.13;1.00;;;24.90;53.40;;;;;;4491485;32;20077;-70
2022/06/24 05:29:14;;;;;;;2.33;1.00;;;24.90;53.40;;;;;;4491731;32;20073;-70
2022/06/24 05:31:39;;;;;;;1.17;1.05;;;24.90;53.40;;;;;;4491907;32;20077;-71
2022/06/24 05:34:07;;;;;;;1.17;1.08;;;24.90;53.40;;;;;;4491941;32;20406;-70
2022/06/24 05:36:34;;;;;;;1.10;1.00;;;24.90;53.50;;;;;;4491640;32;20176;-70
2022/06/24 05:39:04;;;;;;;1.00;0.90;;;24.90;53.50;;;;;;4491148;32;20088;-70
2022/06/24 05:41:30;;;;;;;1.20;1.10;;;24.90;53.50;;;;;;4491698;32;20139;-70
2022/06/24 05:43:56;;;;;;;1.10;1.00;;;24.90;53.50;;;;;;4491890;32;20648;-70
2022/06/24 05:46:21;;;;;;;1.30;0.93;;;24.90;53.50;;;;;;4491619;32;20085;-70
2022/06/24 05:48:47;;;;;;;1.42;1.15;;;24.90;53.50;;;;;;4490587;32;20053;-70
2022/06/24 05:51:16;;;;;;;1.23;1.00;;;24.90;53.50;;;;;;4491840;32;20091;-70
2022/06/24 05:56:28;;;;;;;1.52;0.95;;;24.90;53.60;;;;;;4491947;32;20219;-70
2022/06/24 05:58:54;;;;;;;0.90;0.90;;;24.90;53.60;;;;;;4491576;32;20429;-70
2022/06/24 06:01:21;;;;;;;1.25;0.90;;;24.90;53.60;;;;;;4493218;31;20147;-70
2022/06/24 06:03:48;;;;;;;1.40;1.10;;;24.90;53.60;;;;;;4494511;31;20083;-70
2022/06/24 06:06:14;;;;;;;2.50;0.98;;;24.90;53.60;;;;;;4493265;31;20406;-70
2022/06/24 06:08:41;;;;;;;1.70;1.20;;;24.90;53.60;;;;;;4493106;31;20073;-70
2022/06/24 06:11:15;;;;;;;1.65;1.10;;;24.90;53.70;;;;;;4493970;31;20080;-71
2022/06/24 06:13:41;;;;;;;1.15;1.00;;;24.90;53.70;;;;;;4494358;31;20568;-71
2022/06/24 06:16:08;;;;;;;1.88;1.05;;;24.90;53.70;;;;;;4494058;31;20398;-71
2022/06/24 06:18:34;;;;;;;1.63;1.10;;;24.90;53.70;;;;;;4494143;31;20178;-70
2022/06/24 06:21:05;;;;;;;1.00;0.90;;;24.90;53.70;;;;;;4494368;31;20506;-70
2022/06/24 06:23:31;;;;;;;1.20;1.10;;;24.90;53.70;;;;;;4494097;31;20065;-70
2022/06/24 06:25:59;;;;;;;1.25;0.98;;;24.90;53.70;;;;;;4494030;31;20073;-70
2022/06/24 06:28:25;;;;;;;2.00;1.17;;;24.90;53.80;;;;;;4493964;31;20466;-70
2022/06/24 06:30:51;;;;;;;4.00;1.25;;;24.80;53.80;;;;;;4493891;31;20170;-70
2022/06/24 06:33:17;;;;;;;2.92;1.17;;;24.80;53.80;;;;;;4493995;31;20514;-70
2022/06/24 06:35:43;;;;;;;2.30;1.40;;;24.90;54.00;;;;;;4493889;31;20120;-70
2022/06/24 06:38:09;;;;;;;2.15;1.70;;;24.80;54.00;;;;;;4493341;31;20065;-69
2022/06/24 06:40:35;;;;;;;3.63;2.10;;;24.80;54.10;;;;;;4493507;31;20089;-68
2022/06/24 06:43:02;;;;;;;4.30;2.40;;;24.80;54.50;;;;;;4493335;31;20161;-69
2022/06/24 06:45:28;;;;;;;4.45;2.28;;;24.80;54.80;;;;;;4493730;31;20093;-69
2022/06/24 06:47:54;;;;;;;6.53;2.50;;;24.80;55.00;;;;;;4493719;31;20219;-69
2022/06/24 06:50:20;;;;;;;5.30;2.60;;;24.80;55.20;;;;;;4493631;31;20075;-69
2022/06/24 06:52:47;;;;;;;6.15;2.35;;;24.80;55.40;;;;;;4493599;31;20081;-69
2022/06/24 06:55:12;;;;;;;4.97;2.85;;;24.80;55.50;;;;;;4493547;31;20097;-69
2022/06/24 06:57:38;;;;;;;5.95;2.70;;;24.80;55.60;;;;;;4493545;31;20066;-71
2022/06/24 07:00:05;;;;;;;7.25;2.63;;;24.80;55.80;;;;;;4493719;31;20069;-69
2022/06/24 07:02:32;;;;;;;10.13;2.90;;;24.80;56.00;;;;;;4493401;31;20115;-70
2022/06/24 07:04:58;;;;;;;6.78;2.65;;;24.80;56.10;;;;;;4493477;31;20069;-69
2022/06/24 07:07:24;;;;;;;6.47;2.50;;;24.80;56.30;;;;;;4493219;31;20074;-69
2022/06/24 07:09:51;;;;;;;7.72;3.35;;;24.70;56.40;;;;;;4493514;31;20116;-69
2022/06/24 07:12:17;;;;;;;6.30;2.65;;;24.80;56.60;;;;;;4491730;31;20077;-69
2022/06/24 07:14:43;;;;;;;5.05;2.45;;;24.70;56.90;;;;;;4492980;31;20125;-70
2022/06/24 07:17:09;;;;;;;6.15;2.58;;;24.70;57.20;;;;;;4493250;31;20080;-69
2022/06/24 07:19:36;;;;;;;8.55;2.78;;;24.70;57.20;;;;;;4493171;31;20186;-70
2022/06/24 07:22:03;;;;;;;13.98;3.38;;;24.80;57.50;;;;;;4493119;31;20164;-70
2022/06/24 07:24:28;;;;;;;7.30;2.65;;;24.80;57.60;;;;;;4493089;31;20388;-69
2022/06/24 07:26:54;;;;;;;8.18;2.90;;;24.70;57.60;;;;;;4492842;31;20077;-70
2022/06/24 07:29:20;;;;;;;5.05;2.47;;;24.70;57.70;;;;;;4492809;31;20511;-69
2022/06/24 07:31:47;;;;;;;7.78;2.97;;;24.70;57.70;;;;;;4493504;31;20486;-69
2022/06/24 07:34:14;;;;;;;6.75;2.63;;;24.70;58.00;;;;;;4493132;31;20131;-69
2022/06/24 07:36:41;;;;;;;9.55;2.97;;;24.70;58.30;;;;;;4492888;31;20533;-69
2022/06/24 07:39:07;;;;;;;6.13;2.90;;;24.70;58.60;;;;;;4492292;31;20561;-70
2022/06/24 07:41:33;;;;;;;6.25;2.25;;;24.70;58.60;;;;;;4491641;31;20081;-69
2022/06/24 07:43:59;;;;;;;6.13;2.78;;;24.70;58.60;;;;;;4492442;31;20202;-69
2022/06/24 07:46:27;;;;;;;8.30;2.85;;;24.70;58.60;;;;;;4492478;31;20434;-69
2022/06/24 07:48:53;;;;;;;6.30;2.45;;;24.70;58.60;;;;;;4492331;31;20135;-69
2022/06/24 07:51:21;;;;;;;9.50;2.45;;;24.70;58.60;;;;;;4492572;31;20102;-69
2022/06/24 07:53:47;;;;;;;5.07;2.65;;;24.70;58.80;;;;;;4492815;31;20088;-69
2022/06/24 07:58:59;;;;;;;8.48;2.40;;;24.70;59.10;;;;;;4492891;31;20076;-69
2022/06/24 08:01:24;;;;;;;7.78;2.70;;;24.70;59.20;;;;;;4492426;31;20079;-69
2022/06/24 08:03:50;;;;;;;6.25;2.53;;;24.70;59.40;;;;;;4492146;31;20498;-70
2022/06/24 08:06:17;;;;;;;7.57;2.75;;;24.70;59.40;;;;;;4492492;31;20498;-69
2022/06/24 08:08:43;;;;;;;8.68;2.47;;;24.70;59.60;;;;;;4491010;31;20119;-69
2022/06/24 08:11:09;;;;;;;7.80;2.17;;;24.70;59.50;;;;;;4492209;31;20058;-69
2022/06/24 08:13:34;;;;;;;8.35;2.70;;;24.70;59.60;;;;;;4492459;31;20061;-69
2022/06/24 08:16:01;;;;;;;5.57;2.20;;;24.70;59.70;;;;;;4492053;31;20461;-71
2022/06/24 08:18:27;;;;;;;7.30;2.47;;;24.70;59.90;;;;;;4492288;31;20100;-70
2022/06/24 08:20:53;;;;;;;7.75;2.63;;;24.70;59.90;;;;;;4492474;31;20101;-69
2022/06/24 08:23:19;;;;;;;4.90;2.03;;;24.70;60.00;;;;;;4491390;31;20084;-69
2022/06/24 08:25:45;;;;;;;7.10;2.38;;;24.70;60.10;;;;;;4491160;31;20065;-69
2022/06/24 08:28:11;;;;;;;6.70;1.90;;;24.70;60.30;;;;;;4492191;31;20077;-68
2022/06/24 08:30:37;;;;;;;4.32;1.80;;;24.70;60.40;;;;;;4491938;31;20403;-69
2022/06/24 08:33:03;;;;;;;7.63;2.10;;;24.70;60.40;;;;;;4492344;31;20133;-68
2022/06/24 08:35:30;;;;;;;4.65;1.92;;;24.70;60.40;;;;;;4492346;31;20088;-68
2022/06/24 08:37:57;;;;;;;4.25;2.00;;;24.70;60.40;;;;;;4491757;31;20069;-68
2022/06/24 08:40:25;;;;;;;6.35;2.00;;;24.70;61.30;;;;;;4491623;31;20131;-69
2022/06/24 08:42:53;;;;;;;5.47;2.17;;;24.70;60.30;;;;;;4491978;31;20392;-69
2022/06/24 08:45:19;;;;;;;7.32;2.42;;;24.70;60.30;;;;;;4491154;31;20080;-68
2022/06/24 08:47:47;;;;;;;5.20;2.25;;;24.70;60.40;;;;;;4491948;31;20084;-69
2022/06/24 08:50:13;;;;;;;7.20;2.70;;;24.70;60.80;;;;;;4491933;31;20105;-69
2022/06/24 08:52:44;;;;;;;4.38;2.15;;;24.70;60.90;;;;;;4491674;31;20076;-69
2022/06/24 08:55:15;;;;;;;4.68;2.10;;;24.70;61.00;;;;;;4492200;31;20084;-69
2022/06/24 08:57:40;;;;;;;4.05;2.13;;;24.80;61.00;;;;;;4491966;31;20079;-69
2022/06/24 09:00:07;;;;;;;4.38;2.05;;;24.80;61.00;;;;;;4492182;31;20398;-70
2022/06/24 09:02:33;;;;;;;5.25;2.03;;;24.80;61.10;;;;;;4491555;31;20434;-69
2022/06/24 09:05:00;;;;;;;5.60;2.28;;;24.80;61.00;;;;;;4491638;32;20131;-69
2022/06/24 09:07:27;;;;;;;5.53;2.42;;;24.80;60.90;;;;;;4491878;32;20645;-69
2022/06/24 09:10:00;;;;;;;3.97;1.92;;;24.80;60.90;;;;;;4490700;32;20113;-69
2022/06/24 09:12:30;;;;;;;;;;;24.80;60.90;;;;;;4492547;32;20091;-69
2022/06/24 09:15:03;;;;;;;5.72;2.15;;;24.80;60.90;;;;;;4491802;31;20310;-69
2022/06/24 09:17:30;;;;;;;3.55;1.80;;;24.80;60.80;;;;;;4492093;32;20073;-69
2022/06/24 09:20:18;;;;;;;4.47;2.20;;;24.80;60.80;;;;;;4491428;32;20611;-69
2022/06/24 09:22:45;;;;;;;4.35;2.15;;;24.80;60.90;;;;;;4491760;32;20218;-69
2022/06/24 09:25:11;;;;;;;5.32;2.25;;;24.80;60.80;;;;;;4491483;32;20506;-69
2022/06/24 09:27:43;;;;;;;5.03;1.95;;;24.80;60.90;;;;;;4491917;32;20488;-72
2022/06/24 09:30:16;;;;;;;4.18;2.08;;;24.80;61.00;;;;;;4491689;32;20159;-69
2022/06/24 09:32:49;;;;;;;3.95;1.73;;;24.80;61.00;;;;;;4491718;32;20163;-70
2022/06/24 09:35:15;;;;;;;4.13;1.77;;;24.80;61.20;;;;;;4493110;31;20073;-69
2022/06/24 09:37:46;;;;;;;2.63;1.60;;;24.80;61.10;;;;;;4494521;31;20368;-70
2022/06/24 09:40:24;;;;;;;3.72;1.70;;;24.80;61.30;;;;;;4494545;31;20073;-69
2022/06/24 09:42:56;;;;;;;3.03;1.65;;;24.80;61.40;;;;;;4493560;31;20506;-69
2022/06/24 09:45:23;;;;;;;5.22;1.63;;;24.80;61.50;;;;;;4494613;31;20076;-69
2022/06/24 09:47:50;;;;;;;3.30;1.55;;;24.80;61.40;;;;;;4494598;31;20571;-69
2022/06/24 09:50:18;;;;;;;5.07;1.58;;;24.80;61.30;;;;;;4494720;31;20388;-69
2022/06/24 09:52:44;;;;;;;3.75;1.60;;;24.80;61.40;;;;;;4494731;31;20561;-69
2022/06/24 09:55:12;;;;;;;3.55;1.40;;;24.80;61.70;;;;;;4494434;31;20220;-69
2022/06/24 09:57:39;;;;;;;5.47;1.88;;;24.80;61.80;;;;;;4494468;31;20514;-69
2022/06/24 10:02:53;;;;;;;3.75;1.70;;;24.80;61.90;;;;;;4494309;31;20114;-69
2022/06/24 10:05:20;;;;;;;3.30;1.67;;;24.80;61.70;;;;;;4494299;31;20092;-69
2022/06/24 10:07:47;;;;;;;2.38;1.58;;;24.70;61.70;;;;;;4494453;31;20095;-70
2022/06/24 10:10:16;;;;;;;4.25;1.83;;;24.70;61.70;;;;;;4492834;31;20179;-70
2022/06/24 10:12:49;;;;;;;4.07;2.00;;;24.70;61.80;;;;;;4493770;31;20088;-70
2022/06/24 10:15:16;;;;;;;6.07;1.75;;;24.70;61.90;;;;;;4494252;31;20490;-69
2022/06/24 10:17:44;;;;;;;6.32;1.88;;;24.70;61.90;;;;;;4494059;31;20085;-71
2022/06/24 10:20:13;;;;;;;2.67;1.67;;;24.70;62.10;;;;;;4493983;31;20073;-70
2022/06/24 10:22:43;;;;;;;4.45;1.88;;;24.70;62.10;;;;;;4494121;31;20139;-68
2022/06/24 10:25:10;;;;;;;2.58;1.65;;;24.70;62.40;;;;;;4493796;31;20132;-70
2022/06/24 10:27:57;;;;;;;3.38;1.70;;;24.70;62.40;;;;;;4493959;31;20096;-69
2022/06/24 10:30:45;;;;;;;2.65;1.23;;;24.70;62.70;;;;;;4493818;31;20254;-68
2022/06/24 10:33:17;;;;;;;7.47;1.80;;;24.70;62.70;;;;;;4493506;31;20077;-69
2022/06/24 10:36:01;;;;;;;2.40;1.33;;;24.70;62.70;;;;;;4493873;31;20333;-70
2022/06/24 10:38:38;;;;;;;3.22;1.90;;;24.70;63.00;;;;;;4493579;31;20100;-70
2022/06/24 10:41:06;;;;;;;4.53;2.00;;;24.70;62.90;;;;;;4493818;31;20111;-69
2022/06/24 10:43:36;;;;;;;3.72;1.95;;;24.70;62.80;;;;;;4493852;31;20108;-71
2022/06/24 10:46:15;;;;;;;2.72;1.70;;;24.70;63.00;;;;;;4493374;31;20174;-70
2022/06/24 10:48:55;;;;;;;2.90;1.65;;;24.70;63.20;;;;;;4493489;31;20095;-71
2022/06/24 10:51:22;;;;;;;4.35;1.85;;;24.70;63.50;;;;;;4492464;31;20085;-70
2022/06/24 10:54:03;;;;;;;6.25;1.83;;;24.70;63.70;;;;;;4493895;31;20091;-70
2022/06/24 10:56:40;;;;;;;3.38;1.95;;;24.70;63.80;;;;;;4493621;31;20073;-70
2022/06/24 10:59:06;;;;;;;3.70;1.40;;;24.70;63.70;;;;;;4493822;31;20468;-69
2022/06/24 11:01:32;;;;;;;3.75;1.80;;;24.70;63.60;;;;;;4493549;31;20069;-69
2022/06/24 11:04:04;;;;;;;4.90;1.80;;;24.70;63.70;;;;;;4492510;31;20199;-70
2022/06/24 11:06:30;;;;;;;4.47;1.95;;;24.70;63.80;;;;;;4492519;31;20073;-70
2022/06/24 11:09:06;;;;;;;3.20;1.95;;;24.70;63.70;;;;;;4493483;31;20081;-70
2022/06/24 11:11:32;;;;;;;5.43;2.10;;;24.70;63.80;;;;;;4493470;31;20203;-70
2022/06/24 11:13:58;;;;;;;5.50;2.30;;;24.60;63.50;;;;;;4493313;31;20097;-70
2022/06/24 11:16:28;;;;;;;7.70;2.10;;;24.60;63.60;;;;;;4493264;31;20186;-70
2022/06/24 11:18:54;;;;;;;6.03;1.92;;;24.60;64.40;;;;;;4493271;31;20089;-70
2022/06/24 11:21:20;;;;;;;5.85;2.38;;;24.60;63.50;;;;;;4493449;31;20077;-70
2022/06/24 11:23:47;;;;;;;4.55;2.10;;;24.60;63.40;;;;;;4493335;31;20112;-70
2022/06/24 11:26:15;;;;;;;4.15;1.85;;;24.60;63.40;;;;;;4493123;31;20133;-70
2022/06/24 11:28:44;;;;;;;5.70;2.10;;;24.60;63.30;;;;;;4493016;31;20422;-69
2022/06/24 11:31:16;;;;;;;4.80;2.13;;;24.60;63.40;;;;;;4493030;31;20084;-70
2022/06/24 11:33:42;;;;;;;4.13;1.83;;;24.60;63.30;;;;;;4492606;31;20147;-69
2022/06/24 11:36:09;;;;;;;4.45;1.60;;;24.60;63.30;;;;;;4492589;31;20069;-69
2022/06/24 11:38:49;;;;;;;5.82;1.80;;;24.60;63.30;;;;;;4492687;31;20088;-69
2022/06/24 11:41:22;;;;;;;5.68;2.20;;;24.60;63.30;;;;;;4492702;31;20087;-69
2022/06/24 11:43:51;;;;;;;5.27;1.97;;;24.60;63.40;;;;;;4492731;31;20536;-70
2022/06/24 11:46:17;;;;;;;5.38;1.90;;;24.50;63.20;;;;;;4492706;31;20516;-70
2022/06/24 11:48:43;;;;;;;4.18;2.17;;;24.60;63.30;;;;;;4492457;31;20100;-69
2022/06/24 11:51:22;;;;;;;7.82;1.90;;;24.60;63.30;;;;;;4492518;31;20053;-70
2022/06/24 11:53:58;;;;;;;6.15;1.92;;;24.50;63.20;;;;;;4492424;31;20081;-69
2022/06/24 11:56:29;;;;;;;4.50;1.70;;;24.50;63.20;;;;;;4492885;31;20096;-70
2022/06/24 11:58:57;;;;;;;2.97;1.73;;;24.50;63.10;;;;;;4491871;31;20084;-69
2022/06/24 12:01:24;;;;;;;5.40;2.20;;;24.50;63.10;;;;;;4492261;31;20221;-69
2022/06/24 12:03:51;;;;;;;3.33;1.95;;;24.50;63.10;;;;;;4492155;31;20092;-69
2022/06/24 12:06:19;;;;;;;5.97;1.77;;;24.50;63.20;;;;;;4492434;31;20549;-69
2022/06/24 12:08:45;;;;;;;5.47;1.88;;;24.50;63.20;;;;;;4492626;31;20089;-69
2022/06/24 12:11:16;;;;;;;5.57;1.90;;;24.50;63.20;;;;;;4492222;31;20069;-69
2022/06/24 12:13:54;;;;;;;5.00;1.80;;;24.50;63.20;;;;;;4492543;31;20092;-69
2022/06/24 12:16:19;;;;;;;6.43;2.10;;;24.50;63.20;;;;;;4492351;31;20061;-69
2022/06/24 12:18:45;;;;;;;4.47;1.50;;;24.50;63.10;;;;;;4492207;31;20095;-69
2022/06/24 12:21:11;;;;;;;5.25;1.50;;;24.50;63.20;;;;;;4491077;31;20501;-70
2022/06/24 12:23:44;;;;;;;4.97;1.80;;;24.50;63.20;;;;;;4492065;31;20545;-69
2022/06/24 12:26:21;;;;;;;4.97;2.08;;;24.50;63.20;;;;;;4492511;31;20238;-69
2022/06/24 12:29:02;;;;;;;3.50;1.40;;;24.50;63.20;;;;;;4492355;31;20096;-70
2022/06/24 12:31:29;;;;;;;8.85;1.80;;;24.50;63.20;;;;;;4491745;31;20097;-69
2022/06/24 12:33:55;;;;;;;5.90;1.73;;;24.50;63.20;;;;;;4491996;31;20081;-69
2022/06/24 12:36:23;;;;;;;4.03;1.38;;;24.40;63.10;;;;;;4492131;31;20077;-69
2022/06/24 12:38:52;;;;;;;3.63;1.65;;;24.40;63.10;;;;;;4491905;31;20081;-69
2022/06/24 12:41:19;;;;;;;4.25;1.80;;;24.40;62.90;;;;;;4491667;31;20077;-69
2022/06/24 12:44:00;;;;;;;3.58;1.40;;;24.40;62.90;;;;;;4491860;31;20077;-70
2022/06/24 12:46:37;;;;;;;3.83;1.58;;;24.40;62.90;;;;;;4491640;31;20091;-69
2022/06/24 12:51:59;;;;;;;2.83;1.55;;;24.40;63.20;;;;;;4492183;31;20073;-69
2022/06/24 12:54:24;;;;;;;4.53;1.50;;;24.40;63.20;;;;;;4491541;31;20091;-69
2022/06/24 12:56:51;;;;;;;5.40;1.80;;;24.40;63.20;;;;;;4491816;31;20073;-68
2022/06/24 12:59:18;;;;;;;3.63;1.50;;;24.40;63.20;;;;;;4491498;31;20095;-69
2022/06/24 13:01:45;;;;;;;5.45;1.33;;;24.40;63.20;;;;;;4491783;32;20097;-69
2022/06/24 13:04:13;;;;;;;2.80;1.40;;;24.40;63.20;;;;;;4492020;32;20178;-69
2022/06/24 13:06:40;;;;;;;4.07;1.70;;;24.40;63.20;;;;;;4491799;32;20097;-69